Time;durP1;ratioP1;P1;durP2;ratioP2;P2;SDS_P1;SDS_P2;PMS_P1;PMS_P2;Temp;Humidity;BMP_temperature;BMP_pressure;BME280_temperature;BME280_humidity;BME280_pressure;Samples;Min_cycle;Max_cycle;Signal;HPM_P1;HPM_P2
2022/11/13 00:00:28;;;;;;;5.37;5.00;;;6.70;99.90;;;;;;4965458;28;20224;-79
2022/11/13 00:02:54;;;;;;;5.07;4.40;;;6.70;99.90;;;;;;4965870;28;20250;-79
2022/11/13 00:05:20;;;;;;;6.97;4.63;;;6.70;99.90;;;;;;4950315;28;20303;-80
2022/11/13 00:07:45;;;;;;;7.63;6.97;;;6.70;99.90;;;;;;4950164;28;20749;-79
2022/11/13 00:10:11;;;;;;;6.37;5.37;;;6.60;99.90;;;;;;4965524;28;20268;-80
2022/11/13 00:12:37;;;;;;;5.30;4.63;;;6.60;99.90;;;;;;4965573;28;20251;-79
2022/11/13 00:15:03;;;;;;;11.50;5.90;;;6.70;99.90;;;;;;4965052;28;20574;-79
2022/11/13 00:17:29;;;;;;;6.13;5.53;;;6.70;99.90;;;;;;4966206;28;20622;-81
2022/11/13 00:19:54;;;;;;;6.43;4.97;;;6.80;99.90;;;;;;4965959;28;20310;-79
2022/11/13 00:22:20;;;;;;;4.93;4.17;;;6.80;99.90;;;;;;4965188;28;20220;-80
2022/11/13 00:24:46;;;;;;;6.93;4.53;;;6.70;99.90;;;;;;4948789;28;20571;-80
2022/11/13 00:27:12;;;;;;;5.37;5.00;;;6.70;99.90;;;;;;4980103;28;20216;-79
2022/11/13 00:29:37;;;;;;;4.50;3.97;;;6.80;99.90;;;;;;4947837;28;20216;-81
2022/11/13 00:32:04;;;;;;;5.37;4.97;;;6.80;99.90;;;;;;4948483;28;20196;-79
2022/11/13 00:34:29;;;;;;;6.23;5.63;;;6.90;99.90;;;;;;4963893;28;20264;-79
2022/11/13 00:36:55;;;;;;;7.43;6.67;;;7.00;99.90;;;;;;4965210;28;20673;-80
2022/11/13 00:39:21;;;;;;;4.00;3.33;;;7.00;99.90;;;;;;4965851;28;20216;-81
2022/11/13 00:41:46;;;;;;;5.40;4.43;;;7.00;99.90;;;;;;4965264;28;20197;-81
2022/11/13 00:44:12;;;;;;;4.70;4.27;;;7.10;99.90;;;;;;4964925;28;20256;-78
2022/11/13 00:46:38;;;;;;;5.87;5.47;;;7.10;99.90;;;;;;4966114;28;20689;-79
2022/11/13 00:49:03;;;;;;;5.23;4.07;;;7.00;99.90;;;;;;4964361;28;20712;-79
2022/11/13 00:51:30;;;;;;;6.53;5.83;;;6.90;99.90;;;;;;4966110;28;20236;-80
2022/11/13 00:53:56;;;;;;;5.47;4.97;;;6.90;99.90;;;;;;4966130;28;20216;-80
2022/11/13 00:56:21;;;;;;;8.43;4.50;;;7.00;99.90;;;;;;4965185;28;20207;-80
2022/11/13 00:58:47;;;;;;;7.87;6.40;;;6.90;99.90;;;;;;4965982;28;20228;-79
2022/11/13 01:01:15;;;;;;;7.03;4.50;;;7.00;99.90;;;;;;4932777;28;20299;-79
2022/11/13 01:03:41;;;;;;;6.30;5.00;;;7.00;99.90;;;;;;4965661;28;20256;-79
2022/11/13 01:06:16;;;;;;;11.10;4.07;;;7.10;99.90;;;;;;4965742;28;20821;-81
2022/11/13 01:08:42;;;;;;;6.40;5.10;;;7.00;99.90;;;;;;4964584;28;20629;-78
2022/11/13 01:11:18;;;;;;;5.40;4.90;;;6.90;99.90;;;;;;4964644;28;20686;-79
2022/11/13 01:13:46;;;;;;;5.27;4.77;;;6.80;99.90;;;;;;4963719;28;20228;-80
2022/11/13 01:16:13;;;;;;;8.73;3.97;;;6.80;99.90;;;;;;4965231;28;20216;-79
2022/11/13 01:18:41;;;;;;;6.33;5.73;;;6.70;99.90;;;;;;4965824;28;20239;-79
2022/11/13 01:21:27;;;;;;;4.00;3.50;;;6.60;99.90;;;;;;4965075;28;20695;-80
2022/11/13 01:23:55;;;;;;;6.07;5.47;;;6.60;99.90;;;;;;4964176;28;20699;-79
2022/11/13 01:26:22;;;;;;;5.77;5.27;;;6.70;99.90;;;;;;4965888;28;20192;-80
2022/11/13 01:28:48;;;;;;;8.13;7.23;;;6.80;99.90;;;;;;4965744;28;20912;-79
2022/11/13 01:31:19;;;;;;;5.43;3.53;;;6.80;99.90;;;;;;4964825;28;20780;-79
2022/11/13 01:33:46;;;;;;;7.23;4.57;;;6.80;99.90;;;;;;4964532;28;20247;-79
2022/11/13 01:36:24;;;;;;;5.57;5.07;;;6.80;99.90;;;;;;4964715;28;21000;-81
2022/11/13 01:38:50;;;;;;;4.90;4.50;;;6.90;99.90;;;;;;4964072;28;20303;-79
2022/11/13 01:41:22;;;;;;;8.57;6.27;;;6.90;99.90;;;;;;4964535;28;20188;-80
2022/11/13 01:43:48;;;;;;;6.03;4.73;;;7.00;99.90;;;;;;4963495;28;20268;-79
2022/11/13 01:46:26;;;;;;;6.63;5.70;;;6.90;99.90;;;;;;4964819;28;20258;-80
2022/11/13 01:49:03;;;;;;;5.37;4.43;;;7.00;99.90;;;;;;4964249;28;20295;-82
2022/11/13 01:51:49;;;;;;;7.33;6.07;;;6.90;99.90;;;;;;4963034;28;20283;-79
2022/11/13 01:54:20;;;;;;;4.43;3.53;;;6.90;99.90;;;;;;4963539;28;20769;-80
2022/11/13 01:56:47;;;;;;;6.53;5.57;;;6.80;99.90;;;;;;4963401;28;20189;-80
2022/11/13 01:59:19;;;;;;;9.83;6.07;;;6.70;99.90;;;;;;4964350;28;20249;-79
2022/11/13 02:01:45;;;;;;;4.27;3.97;;;6.70;99.90;;;;;;4979534;28;20232;-80
2022/11/13 02:04:11;;;;;;;5.07;4.67;;;6.70;99.90;;;;;;4963170;28;20321;-79
2022/11/13 02:06:53;;;;;;;5.53;5.07;;;6.70;99.90;;;;;;4964381;28;20220;-79
2022/11/13 02:09:23;;;;;;;14.70;5.53;;;6.70;99.90;;;;;;4963623;28;20224;-81
2022/11/13 02:11:49;;;;;;;5.63;5.30;;;6.80;99.90;;;;;;4964388;28;20200;-80
2022/11/13 02:14:16;;;;;;;5.27;3.97;;;6.80;99.90;;;;;;4965058;28;20271;-81
2022/11/13 02:16:45;;;;;;;5.00;4.40;;;7.00;99.90;;;;;;4963705;28;20223;-81
2022/11/13 02:19:26;;;;;;;7.37;5.10;;;7.10;99.90;;;;;;4962599;28;20216;-83
2022/11/13 02:22:02;;;;;;;8.37;4.80;;;7.00;99.90;;;;;;4964442;28;20291;-82
2022/11/13 02:24:36;;;;;;;6.00;4.97;;;7.10;99.90;;;;;;4963156;28;20557;-79
2022/11/13 02:27:07;;;;;;;11.53;5.83;;;7.10;99.90;;;;;;4964351;28;20226;-79
2022/11/13 02:29:33;;;;;;;5.67;5.27;;;7.10;99.90;;;;;;4963681;28;20212;-81
2022/11/13 02:31:58;;;;;;;6.03;4.90;;;7.10;99.90;;;;;;4964127;28;21014;-79
2022/11/13 02:34:24;;;;;;;7.17;5.53;;;6.90;99.90;;;;;;4962927;28;20220;-79
2022/11/13 02:36:50;;;;;;;6.57;4.70;;;7.00;99.90;;;;;;4946943;28;20311;-79
2022/11/13 02:39:16;;;;;;;4.40;4.00;;;6.70;99.90;;;;;;4963055;28;21230;-81
2022/11/13 02:41:41;;;;;;;7.67;5.90;;;6.50;99.90;;;;;;4964468;28;20258;-83
2022/11/13 02:44:07;;;;;;;6.37;5.77;;;6.50;99.90;;;;;;4964826;28;20335;-81
2022/11/13 02:46:34;;;;;;;7.20;6.07;;;6.60;99.90;;;;;;4963502;28;20282;-81
2022/11/13 02:48:59;;;;;;;6.60;5.70;;;6.70;99.90;;;;;;4963170;28;20236;-81
2022/11/13 02:51:25;;;;;;;4.47;3.53;;;6.90;99.90;;;;;;4963111;28;20243;-81
2022/11/13 02:53:51;;;;;;;6.23;5.63;;;6.90;99.90;;;;;;4962906;28;20189;-81
2022/11/13 02:56:17;;;;;;;5.33;4.87;;;6.50;99.90;;;;;;4962845;28;20995;-81
2022/11/13 02:58:43;;;;;;;9.37;5.37;;;6.30;99.90;;;;;;4947359;28;20682;-80
2022/11/13 03:01:09;;;;;;;5.87;4.77;;;6.30;99.90;;;;;;4962495;28;20241;-79
2022/11/13 03:03:34;;;;;;;4.67;3.77;;;6.40;99.90;;;;;;4964135;28;20305;-81
2022/11/13 03:06:00;;;;;;;8.60;5.37;;;6.70;99.90;;;;;;4946799;28;20221;-80
2022/11/13 03:08:26;;;;;;;6.83;6.13;;;6.80;99.90;;;;;;4932008;28;20569;-79
2022/11/13 03:10:52;;;;;;;6.73;4.50;;;6.70;99.90;;;;;;4966086;28;20240;-79
2022/11/13 03:13:18;;;;;;;6.53;4.13;;;6.70;99.90;;;;;;4967725;28;20243;-79
2022/11/13 03:15:44;;;;;;;6.27;5.20;;;6.70;99.90;;;;;;4967868;28;20237;-80
2022/11/13 03:18:10;;;;;;;3.93;3.57;;;6.70;99.90;;;;;;4949921;28;20563;-80
2022/11/13 03:20:38;;;;;;;11.60;5.00;;;6.60;99.90;;;;;;4967122;28;20476;-82
2022/11/13 03:23:05;;;;;;;7.20;5.73;;;6.60;99.90;;;;;;4966777;28;20197;-79
2022/11/13 03:25:32;;;;;;;6.03;4.40;;;6.60;99.90;;;;;;4966069;28;20228;-79
2022/11/13 03:27:57;;;;;;;4.87;4.43;;;6.50;99.90;;;;;;4965927;28;20820;-79
2022/11/13 03:30:23;;;;;;;5.80;5.13;;;6.50;99.90;;;;;;4966355;28;20228;-79
2022/11/13 03:32:56;;;;;;;11.33;5.57;;;6.70;99.90;;;;;;4968284;28;20216;-79
2022/11/13 03:35:23;;;;;;;7.50;4.43;;;6.70;99.90;;;;;;4951045;28;20275;-79
2022/11/13 03:37:49;;;;;;;5.10;4.30;;;6.80;99.90;;;;;;4966881;28;21128;-78
2022/11/13 03:40:16;;;;;;;7.40;6.50;;;6.90;99.90;;;;;;4966973;28;20277;-79
2022/11/13 03:42:41;;;;;;;7.43;6.73;;;7.00;99.90;;;;;;4967421;28;21161;-79
2022/11/13 03:45:07;;;;;;;9.13;5.00;;;7.10;99.90;;;;;;4967079;28;20319;-80
2022/11/13 03:47:33;;;;;;;5.37;4.50;;;7.10;99.90;;;;;;4949306;28;20211;-80
2022/11/13 03:49:59;;;;;;;6.13;5.53;;;7.20;99.90;;;;;;4966506;28;20232;-79
2022/11/13 03:52:24;;;;;;;6.50;5.87;;;7.10;99.90;;;;;;4966621;28;20681;-79
2022/11/13 03:54:50;;;;;;;9.93;5.77;;;7.10;99.90;;;;;;4965654;28;20307;-80
2022/11/13 03:57:16;;;;;;;9.20;6.23;;;7.20;99.90;;;;;;4965416;28;20212;-80
2022/11/13 03:59:42;;;;;;;8.17;6.97;;;7.30;99.90;;;;;;4965341;28;20196;-81
2022/11/13 04:02:07;;;;;;;7.27;6.40;;;7.30;99.90;;;;;;4965975;28;20204;-79
2022/11/13 04:04:33;;;;;;;6.40;5.90;;;7.30;99.90;;;;;;4949141;28;21044;-81
2022/11/13 04:06:59;;;;;;;7.70;6.27;;;7.30;99.90;;;;;;4965188;28;20220;-79
2022/11/13 04:09:25;;;;;;;5.27;4.80;;;7.30;99.90;;;;;;4965017;28;20625;-79
2022/11/13 04:11:50;;;;;;;7.50;6.73;;;7.20;99.90;;;;;;4965828;28;20203;-80
2022/11/13 04:14:16;;;;;;;6.07;4.30;;;7.10;99.90;;;;;;4966429;28;20673;-80
2022/11/13 04:16:42;;;;;;;5.83;5.40;;;7.20;99.90;;;;;;4965243;28;20548;-79
2022/11/13 04:19:07;;;;;;;12.33;7.63;;;7.10;99.90;;;;;;4965625;28;20224;-79
2022/11/13 04:21:33;;;;;;;6.80;6.30;;;7.10;99.90;;;;;;4964388;28;20224;-79
2022/11/13 04:23:59;;;;;;;9.07;7.43;;;7.10;99.90;;;;;;4949069;28;20225;-81
2022/11/13 04:26:24;;;;;;;8.93;5.87;;;7.20;99.90;;;;;;4966979;28;20199;-81
2022/11/13 04:28:50;;;;;;;7.87;5.83;;;7.20;99.90;;;;;;4965854;28;20745;-82
2022/11/13 04:31:16;;;;;;;7.17;6.47;;;7.30;99.90;;;;;;4965321;28;20237;-80
2022/11/13 04:33:41;;;;;;;10.67;5.40;;;7.40;99.90;;;;;;4949363;28;20225;-82
2022/11/13 04:36:07;;;;;;;6.97;5.60;;;7.40;99.90;;;;;;4949489;28;20229;-78
2022/11/13 04:38:33;;;;;;;7.07;5.67;;;7.30;99.90;;;;;;4964485;28;21134;-81
2022/11/13 04:43:43;;;;;;;6.40;5.87;;;7.20;99.90;;;;;;4965220;28;20252;-80
2022/11/13 04:46:09;;;;;;;6.40;4.37;;;7.20;99.90;;;;;;4964564;28;21213;-82
2022/11/13 04:48:34;;;;;;;3.77;3.40;;;7.10;99.90;;;;;;4965149;28;20239;-79
2022/11/13 04:51:00;;;;;;;6.17;4.70;;;7.10;99.90;;;;;;4964838;28;20575;-79
2022/11/13 04:53:26;;;;;;;5.53;5.03;;;7.20;99.90;;;;;;4965751;28;20223;-80
2022/11/13 04:55:52;;;;;;;8.23;6.27;;;7.20;99.90;;;;;;4966173;28;20224;-80
2022/11/13 04:58:18;;;;;;;8.73;5.73;;;7.20;99.90;;;;;;4949256;28;20311;-79
2022/11/13 05:00:43;;;;;;;9.03;5.73;;;7.10;99.90;;;;;;4966567;28;20367;-79
2022/11/13 05:03:09;;;;;;;11.33;5.83;;;7.10;99.90;;;;;;4964669;28;21028;-80
2022/11/13 05:05:35;;;;;;;9.00;5.13;;;7.00;99.90;;;;;;4949324;28;20185;-80
2022/11/13 05:08:00;;;;;;;6.13;4.93;;;7.00;99.90;;;;;;4965309;28;20643;-80
2022/11/13 05:10:26;;;;;;;5.80;5.30;;;7.00;99.90;;;;;;4964535;28;20271;-80
2022/11/13 05:12:55;;;;;;;9.50;5.33;;;6.90;99.90;;;;;;4965962;28;20279;-80
2022/11/13 05:15:21;;;;;;;7.53;6.50;;;6.90;99.90;;;;;;4964393;28;20223;-80
2022/11/13 05:17:48;;;;;;;8.47;7.57;;;6.90;99.90;;;;;;4964825;28;20188;-80
2022/11/13 05:20:14;;;;;;;8.13;7.50;;;6.90;99.90;;;;;;4965444;28;20193;-80
2022/11/13 05:22:39;;;;;;;6.63;4.63;;;6.90;99.90;;;;;;4965647;28;20283;-80
2022/11/13 05:25:05;;;;;;;5.53;5.03;;;6.80;99.90;;;;;;4964846;28;20682;-79
2022/11/13 05:27:31;;;;;;;6.00;5.10;;;6.80;99.90;;;;;;4964346;28;20239;-80
2022/11/13 05:29:57;;;;;;;6.70;4.73;;;6.80;99.90;;;;;;4964080;28;20236;-80
2022/11/13 05:32:22;;;;;;;10.17;5.77;;;6.90;99.90;;;;;;4948394;28;20205;-79
2022/11/13 05:34:48;;;;;;;10.20;6.57;;;7.00;99.90;;;;;;4932656;28;20690;-79
2022/11/13 05:37:14;;;;;;;7.47;6.00;;;6.90;99.90;;;;;;4966079;28;20275;-80
2022/11/13 05:39:39;;;;;;;8.87;6.77;;;6.80;99.90;;;;;;4963995;28;20678;-80
2022/11/13 05:42:05;;;;;;;7.70;4.90;;;6.70;99.90;;;;;;4964537;28;20224;-80
2022/11/13 05:44:31;;;;;;;7.37;5.40;;;6.70;99.90;;;;;;4965880;28;20237;-79
2022/11/13 05:46:57;;;;;;;5.50;4.17;;;6.80;99.90;;;;;;4965939;28;20228;-79
2022/11/13 05:49:22;;;;;;;10.27;4.97;;;6.80;99.90;;;;;;4964122;28;20235;-81
2022/11/13 05:51:48;;;;;;;7.27;5.20;;;6.60;99.90;;;;;;4948195;28;20235;-80
2022/11/13 05:54:14;;;;;;;6.10;5.43;;;6.50;99.90;;;;;;4964172;28;20710;-80
2022/11/13 05:56:39;;;;;;;5.70;5.30;;;6.50;99.90;;;;;;4965421;28;20207;-80
2022/11/13 05:59:06;;;;;;;6.13;4.77;;;6.60;99.90;;;;;;4965897;28;20188;-80
2022/11/13 06:01:35;;;;;;;6.40;5.90;;;6.80;99.90;;;;;;4965363;28;20923;-80
2022/11/13 06:04:01;;;;;;;5.93;5.33;;;7.00;99.90;;;;;;4964614;28;20312;-79
2022/11/13 06:06:28;;;;;;;12.77;6.90;;;7.10;99.90;;;;;;4965212;28;20220;-80
2022/11/13 06:08:55;;;;;;;8.83;6.50;;;7.00;99.90;;;;;;4964039;28;21202;-80
2022/11/13 06:11:23;;;;;;;11.33;5.93;;;6.90;99.90;;;;;;4965818;28;20246;-80
2022/11/13 06:13:50;;;;;;;5.93;5.43;;;6.90;99.90;;;;;;4963786;28;20321;-79
2022/11/13 06:16:17;;;;;;;5.37;4.53;;;6.80;99.90;;;;;;4964699;28;20311;-80
2022/11/13 06:18:44;;;;;;;5.67;5.17;;;6.70;99.90;;;;;;4964792;28;20228;-80
2022/11/13 06:21:16;;;;;;;5.93;5.27;;;6.60;99.90;;;;;;4963774;28;20290;-79
2022/11/13 06:23:42;;;;;;;8.37;6.00;;;6.70;99.90;;;;;;4964849;28;20299;-80
2022/11/13 06:26:15;;;;;;;4.33;3.97;;;6.70;99.90;;;;;;4964809;28;20215;-80
2022/11/13 06:28:40;;;;;;;7.60;4.43;;;6.70;99.90;;;;;;4964402;28;21206;-80
2022/11/13 06:31:12;;;;;;;6.07;5.50;;;6.60;99.90;;;;;;4964691;28;20319;-79
2022/11/13 06:33:40;;;;;;;5.37;4.37;;;6.50;99.90;;;;;;4979281;28;20224;-79
2022/11/13 06:36:16;;;;;;;9.47;5.53;;;6.60;99.90;;;;;;4964715;28;20216;-80
2022/11/13 06:38:42;;;;;;;7.60;5.90;;;6.60;99.90;;;;;;4964849;28;20595;-80
2022/11/13 06:41:10;;;;;;;10.37;6.77;;;6.70;99.90;;;;;;4965425;28;20199;-81
2022/11/13 06:43:36;;;;;;;5.63;4.77;;;6.70;99.90;;;;;;4964880;28;20221;-79
2022/11/13 06:46:09;;;;;;;7.23;3.93;;;6.80;99.90;;;;;;4968196;28;20323;-80
2022/11/13 06:48:35;;;;;;;5.93;5.53;;;6.90;99.90;;;;;;4967313;28;20761;-79
2022/11/13 06:51:05;;;;;;;6.03;4.87;;;7.00;99.90;;;;;;4967573;28;20232;-79
2022/11/13 06:53:32;;;;;;;9.33;5.47;;;7.00;99.90;;;;;;4983787;28;20189;-80
2022/11/13 06:55:58;;;;;;;8.10;5.33;;;7.00;99.90;;;;;;4967101;28;20224;-80
2022/11/13 06:58:24;;;;;;;6.33;5.93;;;6.90;99.90;;;;;;4968034;28;20637;-80
2022/11/13 07:00:51;;;;;;;5.17;4.77;;;7.00;99.90;;;;;;4968487;28;20228;-80
2022/11/13 07:03:23;;;;;;;7.93;5.80;;;6.90;99.90;;;;;;4968112;28;20327;-80
2022/11/13 07:05:49;;;;;;;10.87;5.10;;;7.10;99.90;;;;;;4968662;28;20738;-79
2022/11/13 07:08:16;;;;;;;11.57;6.93;;;7.30;99.90;;;;;;4969685;28;20189;-83
2022/11/13 07:10:42;;;;;;;8.23;6.20;;;7.50;99.90;;;;;;4950924;28;20625;-79
2022/11/13 07:13:09;;;;;;;7.67;5.70;;;7.70;99.90;;;;;;4968088;28;20295;-80
2022/11/13 07:15:38;;;;;;;8.17;7.33;;;7.80;99.90;;;;;;4966223;28;20216;-79
2022/11/13 07:18:05;;;;;;;6.43;5.83;;;7.90;99.90;;;;;;4966804;28;20223;-80
2022/11/13 07:20:32;;;;;;;10.47;7.73;;;8.10;99.90;;;;;;4949852;28;20843;-79
2022/11/13 07:22:59;;;;;;;15.13;7.43;;;8.10;99.90;;;;;;4964956;28;20243;-79
2022/11/13 07:25:26;;;;;;;7.10;6.37;;;8.10;99.90;;;;;;4965925;28;20216;-81
2022/11/13 07:27:52;;;;;;;6.70;6.00;;;8.10;99.90;;;;;;4966048;28;20252;-80
2022/11/13 07:30:18;;;;;;;9.50;6.00;;;8.30;99.90;;;;;;4965640;28;20395;-79
2022/11/13 07:32:44;;;;;;;7.87;7.13;;;8.50;99.90;;;;;;4966183;28;20702;-80
2022/11/13 07:35:10;;;;;;;8.57;6.53;;;8.90;99.90;;;;;;4968008;28;20196;-81
2022/11/13 07:37:36;;;;;;;8.23;7.40;;;9.20;99.90;;;;;;4966494;28;20243;-81
2022/11/13 07:40:03;;;;;;;10.63;8.27;;;9.10;99.90;;;;;;4949249;28;21023;-81
2022/11/13 07:42:28;;;;;;;11.83;8.63;;;9.00;99.90;;;;;;4966913;28;20713;-80
2022/11/13 07:44:54;;;;;;;9.57;7.73;;;9.20;99.90;;;;;;4964694;28;20240;-80
2022/11/13 07:47:20;;;;;;;10.37;7.43;;;9.10;99.90;;;;;;4950391;28;20283;-80
2022/11/13 07:49:46;;;;;;;10.07;9.03;;;9.80;99.90;;;;;;4964620;28;20268;-80
2022/11/13 07:52:11;;;;;;;21.77;12.13;;;10.90;99.90;;;;;;4965271;28;20230;-81
2022/11/13 07:54:37;;;;;;;17.07;12.50;;;11.90;99.90;;;;;;4964116;28;20662;-81
2022/11/13 07:57:03;;;;;;;23.60;14.33;;;12.00;99.90;;;;;;4967166;28;20241;-81
2022/11/13 07:59:28;;;;;;;20.77;13.17;;;12.10;99.90;;;;;;4950426;28;20200;-81
2022/11/13 08:01:54;;;;;;;19.07;11.77;;;12.00;99.90;;;;;;4965736;28;20216;-81
2022/11/13 08:04:20;;;;;;;19.67;11.90;;;11.60;99.90;;;;;;4967110;28;20252;-80
2022/11/13 08:06:46;;;;;;;9.30;7.80;;;11.00;99.90;;;;;;4967204;28;20366;-81
2022/11/13 08:09:11;;;;;;;11.47;8.73;;;10.60;99.90;;;;;;4965314;28;20232;-80
2022/11/13 08:11:37;;;;;;;12.13;9.30;;;10.30;99.90;;;;;;4964845;28;20223;-80
2022/11/13 08:14:03;;;;;;;8.10;6.53;;;10.10;99.90;;;;;;4967647;28;20196;-79
2022/11/13 08:16:28;;;;;;;8.50;6.93;;;9.80;99.90;;;;;;4965823;28;20229;-80
2022/11/13 08:18:54;;;;;;;10.30;7.80;;;9.80;99.90;;;;;;4966456;28;20725;-80
2022/11/13 08:21:20;;;;;;;8.30;5.23;;;9.80;99.90;;;;;;4949605;28;20216;-80
2022/11/13 08:23:46;;;;;;;12.03;6.20;;;9.80;99.90;;;;;;4966390;28;21014;-81
2022/11/13 08:26:13;;;;;;;6.70;6.13;;;9.80;99.90;;;;;;4966043;28;20224;-80
2022/11/13 08:28:39;;;;;;;9.10;5.97;;;9.80;99.90;;;;;;4966686;28;20221;-81
2022/11/13 08:31:12;;;;;;;10.47;5.87;;;9.90;99.90;;;;;;4948489;28;20264;-80
2022/11/13 08:33:38;;;;;;;6.63;5.47;;;9.90;99.90;;;;;;4963528;28;20744;-79
2022/11/13 08:36:04;;;;;;;6.87;6.27;;;10.00;99.90;;;;;;4965894;28;20678;-80
2022/11/13 08:38:30;;;;;;;8.83;7.23;;;10.10;99.90;;;;;;4945383;28;20593;-79
2022/11/13 08:41:00;;;;;;;7.63;5.67;;;10.30;99.90;;;;;;4963264;28;20243;-81
2022/11/13 08:43:26;;;;;;;9.50;6.17;;;10.40;99.90;;;;;;4947562;28;20343;-81
2022/11/13 08:45:52;;;;;;;7.07;6.30;;;10.40;99.90;;;;;;4964020;28;20240;-80
2022/11/13 08:48:19;;;;;;;7.70;6.53;;;10.40;99.90;;;;;;4979317;28;20644;-80
2022/11/13 08:50:44;;;;;;;7.40;5.30;;;10.50;99.90;;;;;;4962695;28;21047;-80
2022/11/13 08:53:10;;;;;;;7.60;5.30;;;10.60;99.90;;;;;;4964398;28;20197;-80
2022/11/13 08:55:36;;;;;;;10.83;6.77;;;10.70;99.90;;;;;;4963438;28;20232;-78
2022/11/13 08:58:03;;;;;;;8.27;5.77;;;10.60;99.90;;;;;;4962837;28;20247;-81
2022/11/13 09:00:30;;;;;;;6.57;4.80;;;10.70;99.90;;;;;;4959137;28;20232;-82
2022/11/13 09:02:57;;;;;;;9.10;5.77;;;10.80;99.90;;;;;;4961723;28;20191;-80
2022/11/13 09:05:23;;;;;;;6.13;5.53;;;10.80;99.90;;;;;;4962316;28;20197;-82
2022/11/13 09:07:50;;;;;;;6.57;5.33;;;10.80;99.90;;;;;;4962147;28;20224;-82
2022/11/13 09:10:18;;;;;;;8.97;5.10;;;10.90;99.90;;;;;;4961461;28;20336;-83
2022/11/13 09:12:45;;;;;;;7.70;5.90;;;10.90;99.90;;;;;;4963422;28;20333;-81
2022/11/13 09:15:11;;;;;;;5.93;5.37;;;11.00;99.90;;;;;;4964214;28;20315;-80
2022/11/13 09:17:37;;;;;;;6.13;5.23;;;10.90;99.90;;;;;;4963961;28;20204;-81
2022/11/13 09:20:06;;;;;;;8.17;6.03;;;11.00;99.90;;;;;;4964599;28;20235;-80
2022/11/13 09:22:32;;;;;;;7.80;5.40;;;11.20;99.90;;;;;;4965182;28;20252;-81
2022/11/13 09:24:58;;;;;;;6.50;5.67;;;11.20;99.90;;;;;;4963133;28;20221;-80
2022/11/13 09:27:24;;;;;;;5.23;4.73;;;11.30;99.90;;;;;;4964010;28;20235;-80
2022/11/13 09:29:49;;;;;;;6.47;4.43;;;11.40;99.90;;;;;;4963903;28;20540;-81
2022/11/13 09:32:16;;;;;;;6.40;5.47;;;11.40;99.90;;;;;;4963054;28;20287;-82
2022/11/13 09:34:42;;;;;;;9.27;7.03;;;11.60;99.90;;;;;;4962025;28;20217;-82
2022/11/13 09:37:07;;;;;;;7.10;5.53;;;11.70;99.90;;;;;;4962732;28;20235;-79
2022/11/13 09:39:33;;;;;;;6.73;4.53;;;11.80;99.90;;;;;;4961782;28;20298;-80
2022/11/13 09:42:16;;;;;;;7.10;5.23;;;11.90;99.90;;;;;;4962435;28;20280;-79
2022/11/13 09:45:06;;;;;;;5.80;4.73;;;12.00;99.90;;;;;;4962978;28;20353;-81
2022/11/13 09:47:43;;;;;;;8.83;5.07;;;12.10;99.90;;;;;;4977352;28;20270;-80
2022/11/13 09:50:20;;;;;;;10.43;6.77;;;12.30;99.90;;;;;;4962917;28;20228;-81
2022/11/13 09:52:46;;;;;;;8.37;6.77;;;12.40;99.90;;;;;;4962140;28;20224;-80
2022/11/13 09:55:16;;;;;;;5.73;5.03;;;12.50;99.90;;;;;;4963400;28;20220;-81
2022/11/13 09:57:47;;;;;;;7.73;6.33;;;12.60;99.90;;;;;;4962896;28;20224;-81
2022/11/13 10:00:17;;;;;;;6.23;5.50;;;12.70;99.90;;;;;;4961526;28;20218;-80
2022/11/13 10:02:53;;;;;;;6.93;5.50;;;12.70;99.90;;;;;;4962662;28;21112;-80
2022/11/13 10:05:27;;;;;;;6.70;5.83;;;12.70;99.90;;;;;;4962558;28;20228;-80
2022/11/13 10:08:17;;;;;;;8.73;5.60;;;12.80;99.90;;;;;;4960197;28;20228;-80
2022/11/13 10:10:53;;;;;;;8.33;4.97;;;12.80;99.90;;;;;;4962265;28;20662;-82
2022/11/13 10:13:25;;;;;;;5.57;4.43;;;12.60;99.90;;;;;;4961315;28;20298;-80
2022/11/13 10:16:03;;;;;;;6.37;5.17;;;12.60;99.90;;;;;;4962125;28;20220;-79
2022/11/13 10:18:34;;;;;;;6.50;4.70;;;12.40;99.90;;;;;;4961984;28;20224;-80
2022/11/13 10:21:40;;;;;;;7.20;4.63;;;12.30;99.90;;;;;;4962806;28;20207;-79
2022/11/13 10:24:21;;;;;;;5.60;4.40;;;12.20;99.90;;;;;;4960494;28;20231;-80
2022/11/13 10:26:46;;;;;;;4.93;4.50;;;12.20;99.90;;;;;;4962425;28;20192;-79
2022/11/13 10:29:15;;;;;;;4.93;4.50;;;12.40;99.90;;;;;;4962172;28;20220;-80
2022/11/13 10:31:45;;;;;;;7.90;5.47;;;12.50;99.90;;;;;;4957676;28;20273;-80
2022/11/13 10:34:12;;;;;;;4.70;4.30;;;12.60;99.90;;;;;;4959012;28;20212;-79
2022/11/13 10:36:47;;;;;;;8.77;4.93;;;12.90;99.90;;;;;;4960360;28;20307;-80
2022/11/13 10:39:12;;;;;;;7.80;5.00;;;13.00;99.90;;;;;;4961338;28;20176;-80
2022/11/13 10:41:50;;;;;;;5.80;5.20;;;13.10;99.90;;;;;;4959763;28;20708;-81
2022/11/13 10:44:31;;;;;;;5.63;4.97;;;13.20;99.90;;;;;;4962218;28;20220;-80
2022/11/13 10:47:25;;;;;;;4.93;4.20;;;13.30;99.90;;;;;;4962705;28;20244;-80
2022/11/13 10:49:50;;;;;;;5.37;4.23;;;13.40;99.90;;;;;;4959222;28;20265;-81
2022/11/13 10:52:27;;;;;;;5.70;4.20;;;13.60;99.90;;;;;;4963508;28;20464;-81
2022/11/13 10:55:25;;;;;;;7.17;4.47;;;13.70;99.90;;;;;;4963534;28;20216;-81
2022/11/13 10:57:56;;;;;;;8.93;3.67;;;13.90;99.90;;;;;;4963208;28;20217;-81
2022/11/13 11:00:43;;;;;;;8.10;4.57;;;13.90;99.90;;;;;;4963140;28;20288;-80
2022/11/13 11:03:18;;;;;;;6.40;4.60;;;13.90;99.90;;;;;;4962387;28;20262;-81
2022/11/13 11:06:02;;;;;;;7.27;5.23;;;13.80;99.90;;;;;;4963834;28;20605;-81
2022/11/13 11:08:33;;;;;;;5.10;4.23;;;13.80;99.90;;;;;;4961873;28;20303;-80
2022/11/13 11:13:51;;;;;;;6.43;4.87;;;13.90;99.90;;;;;;4963348;28;20224;-81
2022/11/13 11:16:22;;;;;;;6.53;4.77;;;14.00;99.90;;;;;;4961502;28;20581;-81
2022/11/13 11:19:03;;;;;;;9.10;5.63;;;13.90;99.90;;;;;;4961928;28;20217;-81
2022/11/13 11:21:33;;;;;;;7.37;4.83;;;13.90;99.90;;;;;;4962739;28;20192;-80
2022/11/13 11:24:14;;;;;;;6.20;4.37;;;14.10;99.90;;;;;;4961679;28;20268;-81
2022/11/13 11:27:03;;;;;;;6.80;5.33;;;14.20;99.90;;;;;;4962809;28;20228;-82
2022/11/13 11:29:35;;;;;;;5.13;4.00;;;14.20;99.90;;;;;;4961753;28;20224;-81
2022/11/13 11:32:26;;;;;;;5.77;4.17;;;14.10;99.90;;;;;;4965499;28;20290;-81
2022/11/13 11:35:14;;;;;;;5.03;3.77;;;14.10;99.90;;;;;;4949861;28;21032;-80
2022/11/13 11:37:58;;;;;;;5.33;4.77;;;14.20;99.90;;;;;;4955627;28;20216;-81
2022/11/13 11:40:32;;;;;;;7.43;5.07;;;14.20;99.90;;;;;;4964747;28;20228;-80
2022/11/13 11:43:22;;;;;;;6.40;4.57;;;14.30;99.90;;;;;;4964785;28;20238;-81
2022/11/13 11:45:48;;;;;;;8.10;4.80;;;14.50;99.90;;;;;;4964233;28;20233;-80
2022/11/13 11:48:22;;;;;;;5.37;4.87;;;14.60;99.90;;;;;;4964418;28;20247;-81
2022/11/13 11:51:10;;;;;;;5.80;4.47;;;14.80;99.90;;;;;;4964376;28;20803;-83
2022/11/13 11:53:56;;;;;;;6.23;4.20;;;15.00;99.90;;;;;;4965098;28;20224;-83
2022/11/13 11:56:42;;;;;;;6.00;4.20;;;15.00;99.90;;;;;;4965323;28;20224;-81
2022/11/13 11:59:32;;;;;;;4.33;3.47;;;14.90;99.90;;;;;;4964485;28;20678;-81
2022/11/13 12:02:37;;;;;;;5.17;3.97;;;14.80;99.90;;;;;;4965141;28;20235;-81
2022/11/13 12:05:28;;;;;;;4.53;3.80;;;14.70;99.90;;;;;;4963258;28;20299;-80
2022/11/13 12:08:15;;;;;;;4.00;3.67;;;14.70;99.90;;;;;;4980157;28;20216;-81
2022/11/13 12:10:50;;;;;;;6.43;4.23;;;14.70;99.90;;;;;;4964913;28;20720;-81
2022/11/13 12:13:40;;;;;;;5.20;3.63;;;14.70;99.90;;;;;;4963550;28;20216;-80
2022/11/13 12:16:19;;;;;;;4.83;3.93;;;14.80;99.90;;;;;;4964822;28;20308;-81
2022/11/13 12:19:22;;;;;;;3.87;3.40;;;14.90;99.90;;;;;;4979233;28;20224;-80
2022/11/13 12:21:53;;;;;;;4.93;3.70;;;15.00;99.90;;;;;;4964945;28;21189;-81
2022/11/13 12:24:43;;;;;;;4.87;3.90;;;15.00;99.90;;;;;;4964601;28;20279;-80
2022/11/13 12:27:19;;;;;;;3.00;2.70;;;15.00;99.90;;;;;;4965602;28;20227;-80
2022/11/13 12:29:56;;;;;;;5.67;3.77;;;15.00;99.90;;;;;;4963835;28;20323;-80
2022/11/13 12:32:43;;;;;;;6.20;4.17;;;15.10;99.90;;;;;;4963431;28;20227;-83
2022/11/13 12:35:19;;;;;;;4.87;4.17;;;15.20;99.90;;;;;;4963869;28;20224;-81
2022/11/13 12:38:20;;;;;;;4.67;4.17;;;15.10;99.90;;;;;;4947786;28;20275;-81
2022/11/13 12:41:09;;;;;;;7.60;4.97;;;14.90;99.90;;;;;;4932431;28;20304;-82
2022/11/13 12:43:54;;;;;;;5.63;4.00;;;14.60;99.90;;;;;;4965438;28;20225;-81
2022/11/13 12:46:20;;;;;;;6.30;4.50;;;14.50;99.90;;;;;;4965801;28;20255;-82
2022/11/13 12:48:47;;;;;;;5.57;4.07;;;14.50;99.90;;;;;;4965035;28;20690;-81
2022/11/13 12:51:15;;;;;;;4.37;3.20;;;14.70;99.90;;;;;;4963804;28;20303;-81
2022/11/13 12:53:45;;;;;;;4.63;3.07;;;14.90;99.90;;;;;;4960689;28;20603;-81
2022/11/13 12:56:28;;;;;;;3.63;3.30;;;14.80;99.90;;;;;;4963122;28;20319;-82
2022/11/13 12:59:31;;;;;;;4.40;3.27;;;14.70;99.90;;;;;;4959425;28;20224;-82
2022/11/13 13:02:05;;;;;;;4.80;3.80;;;14.60;99.90;;;;;;4960581;28;20290;-81
2022/11/13 13:04:31;;;;;;;4.90;3.30;;;14.70;99.90;;;;;;4959497;28;20342;-81
2022/11/13 13:07:18;;;;;;;3.77;2.97;;;14.70;99.90;;;;;;4961286;28;20570;-82
2022/11/13 13:10:05;;;;;;;7.17;3.83;;;14.70;99.90;;;;;;4958292;28;20223;-82
2022/11/13 13:12:59;;;;;;;3.63;2.87;;;14.80;99.90;;;;;;4955527;28;20270;-82